sensor_id;sensor_type;location;lat;lon;timestamp;pressure;altitude;pressure_sealevel;temperature;humidity
71666;BME280;59503;53.486;10.196;2024-01-27T00:01:21;102844.53;;;4.97;100.00
71666;BME280;59503;53.486;10.196;2024-01-27T00:03:46;102836.97;;;4.94;100.00
71666;BME280;59503;53.486;10.196;2024-01-27T00:06:12;102827.81;;;4.85;100.00
71666;BME280;59503;53.486;10.196;2024-01-27T00:08:37;102830.50;;;4.90;100.00
71666;BME280;59503;53.486;10.196;2024-01-27T00:11:03;102830.78;;;4.88;100.00
71666;BME280;59503;53.486;10.196;2024-01-27T00:13:29;102819.72;;;4.95;100.00
71666;BME280;59503;53.486;10.196;2024-01-27T00:15:54;102822.16;;;4.86;100.00
71666;BME280;59503;53.486;10.196;2024-01-27T00:18:20;102837.25;;;4.82;100.00
71666;BME280;59503;53.486;10.196;2024-01-27T00:20:46;102830.78;;;4.88;100.00
71666;BME280;59503;53.486;10.196;2024-01-27T00:23:11;102827.81;;;4.90;100.00
71666;BME280;59503;53.486;10.196;2024-01-27T00:25:37;102840.75;;;4.93;100.00
71666;BME280;59503;53.486;10.196;2024-01-27T00:28:02;102835.91;;;4.90;100.00
71666;BME280;59503;53.486;10.196;2024-01-27T00:30:28;102831.34;;;4.90;100.00
71666;BME280;59503;53.486;10.196;2024-01-27T00:32:53;102836.97;;;4.89;100.00
71666;BME280;59503;53.486;10.196;2024-01-27T00:35:19;102850.97;;;4.91;100.00
71666;BME280;59503;53.486;10.196;2024-01-27T00:37:44;102842.91;;;4.86;100.00
71666;BME280;59503;53.486;10.196;2024-01-27T00:40:10;102850.97;;;4.86;100.00
71666;BME280;59503;53.486;10.196;2024-01-27T00:42:36;102863.66;;;4.90;100.00
71666;BME280;59503;53.486;10.196;2024-01-27T00:45:04;102858.28;;;4.85;100.00
71666;BME280;59503;53.486;10.196;2024-01-27T00:47:29;102874.19;;;4.87;100.00
71666;BME280;59503;53.486;10.196;2024-01-27T00:49:55;102869.84;;;4.86;100.00
71666;BME280;59503;53.486;10.196;2024-01-27T00:52:20;102874.97;;;4.82;100.00
71666;BME280;59503;53.486;10.196;2024-01-27T00:54:46;102875.78;;;4.83;100.00
71666;BME280;59503;53.486;10.196;2024-01-27T00:57:11;102878.47;;;4.88;100.00
71666;BME280;59503;53.486;10.196;2024-01-27T00:59:37;102883.31;;;4.91;100.00
71666;BME280;59503;53.486;10.196;2024-01-27T01:02:03;102884.94;;;4.87;100.00
71666;BME280;59503;53.486;10.196;2024-01-27T01:04:28;102889.78;;;4.90;100.00
71666;BME280;59503;53.486;10.196;2024-01-27T01:06:54;102895.72;;;4.92;100.00
71666;BME280;59503;53.486;10.196;2024-01-27T01:09:19;102900.56;;;5.00;100.00
71666;BME280;59503;53.486;10.196;2024-01-27T01:11:45;102903.53;;;5.03;100.00
71666;BME280;59503;53.486;10.196;2024-01-27T01:14:10;102905.66;;;5.06;100.00
71666;BME280;59503;53.486;10.196;2024-01-27T01:16:36;102897.03;;;5.09;100.00
71666;BME280;59503;53.486;10.196;2024-01-27T01:19:01;102902.97;;;5.12;100.00
71666;BME280;59503;53.486;10.196;2024-01-27T01:21:27;102907.81;;;5.09;100.00
71666;BME280;59503;53.486;10.196;2024-01-27T01:23:53;102907.25;;;5.13;100.00
71666;BME280;59503;53.486;10.196;2024-01-27T01:26:19;102900.28;;;5.12;100.00
71666;BME280;59503;53.486;10.196;2024-01-27T01:28:44;102909.19;;;5.12;100.00
71666;BME280;59503;53.486;10.196;2024-01-27T01:31:10;102907.53;;;5.16;100.00
71666;BME280;59503;53.486;10.196;2024-01-27T01:33:35;102902.13;;;5.16;100.00
71666;BME280;59503;53.486;10.196;2024-01-27T01:36:01;102914.56;;;5.17;100.00
71666;BME280;59503;53.486;10.196;2024-01-27T01:38:26;102913.47;;;5.18;100.00
71666;BME280;59503;53.486;10.196;2024-01-27T01:40:51;102911.84;;;5.22;100.00
71666;BME280;59503;53.486;10.196;2024-01-27T01:43:17;102919.13;;;5.22;100.00
71666;BME280;59503;53.486;10.196;2024-01-27T01:45:42;102926.94;;;5.18;100.00
71666;BME280;59503;53.486;10.196;2024-01-27T01:48:08;102940.97;;;5.20;100.00
71666;BME280;59503;53.486;10.196;2024-01-27T01:50:34;102933.94;;;5.09;100.00
71666;BME280;59503;53.486;10.196;2024-01-27T01:53:01;102946.91;;;5.22;100.00
71666;BME280;59503;53.486;10.196;2024-01-27T01:55:26;102951.75;;;5.20;100.00
71666;BME280;59503;53.486;10.196;2024-01-27T01:57:52;102946.91;;;5.17;100.00
71666;BME280;59503;53.486;10.196;2024-01-27T02:00:18;102949.59;;;5.17;100.00
71666;BME280;59503;53.486;10.196;2024-01-27T02:02:44;102945.81;;;5.18;100.00
71666;BME280;59503;53.486;10.196;2024-01-27T02:05:12;102963.88;;;5.13;100.00
71666;BME280;59503;53.486;10.196;2024-01-27T02:07:38;102965.22;;;5.20;100.00
71666;BME280;59503;53.486;10.196;2024-01-27T02:10:05;102970.06;;;5.18;100.00
71666;BME280;59503;53.486;10.196;2024-01-27T02:12:31;102977.63;;;5.21;100.00
71666;BME280;59503;53.486;10.196;2024-01-27T02:14:56;102973.31;;;5.25;100.00
71666;BME280;59503;53.486;10.196;2024-01-27T02:17:22;102982.22;;;5.26;100.00
71666;BME280;59503;53.486;10.196;2024-01-27T02:19:47;102971.44;;;5.16;100.00
71666;BME280;59503;53.486;10.196;2024-01-27T02:22:13;102979.81;;;5.14;100.00
71666;BME280;59503;53.486;10.196;2024-01-27T02:24:38;102989.22;;;5.01;100.00
71666;BME280;59503;53.486;10.196;2024-01-27T02:27:04;102987.88;;;4.99;100.00
71666;BME280;59503;53.486;10.196;2024-01-27T02:29:29;102992.19;;;4.95;100.00
71666;BME280;59503;53.486;10.196;2024-01-27T02:31:55;102988.13;;;4.92;100.00
71666;BME280;59503;53.486;10.196;2024-01-27T02:34:20;102986.25;;;4.98;100.00
71666;BME280;59503;53.486;10.196;2024-01-27T02:36:46;102981.13;;;4.96;100.00
71666;BME280;59503;53.486;10.196;2024-01-27T02:39:11;102991.66;;;5.03;100.00
71666;BME280;59503;53.486;10.196;2024-01-27T02:41:37;102989.22;;;5.06;100.00
71666;BME280;59503;53.486;10.196;2024-01-27T02:44:07;102992.75;;;5.02;100.00
71666;BME280;59503;53.486;10.196;2024-01-27T02:46:32;102995.72;;;5.16;100.00
71666;BME280;59503;53.486;10.196;2024-01-27T02:48:58;102987.91;;;5.14;100.00
71666;BME280;59503;53.486;10.196;2024-01-27T02:51:23;102999.72;;;5.18;100.00
71666;BME280;59503;53.486;10.196;2024-01-27T02:53:49;103007.81;;;5.18;100.00
71666;BME280;59503;53.486;10.196;2024-01-27T02:56:16;103010.25;;;5.30;100.00
71666;BME280;59503;53.486;10.196;2024-01-27T02:58:42;103011.34;;;5.24;100.00
71666;BME280;59503;53.486;10.196;2024-01-27T03:01:07;103011.06;;;5.20;100.00
71666;BME280;59503;53.486;10.196;2024-01-27T03:03:33;102998.66;;;5.19;100.00
71666;BME280;59503;53.486;10.196;2024-01-27T03:05:59;103013.75;;;5.20;100.00
71666;BME280;59503;53.486;10.196;2024-01-27T03:08:24;103015.63;;;5.20;100.00
71666;BME280;59503;53.486;10.196;2024-01-27T03:10:50;103016.72;;;5.19;100.00
71666;BME280;59503;53.486;10.196;2024-01-27T03:13:15;103027.78;;;5.17;100.00
71666;BME280;59503;53.486;10.196;2024-01-27T03:15:41;103020.75;;;5.16;100.00
71666;BME280;59503;53.486;10.196;2024-01-27T03:18:08;103021.84;;;5.20;100.00
71666;BME280;59503;53.486;10.196;2024-01-27T03:20:34;103026.69;;;5.23;100.00
71666;BME280;59503;53.486;10.196;2024-01-27T03:22:59;103024.00;;;5.28;100.00
71666;BME280;59503;53.486;10.196;2024-01-27T03:25:24;103025.09;;;5.27;100.00
71666;BME280;59503;53.486;10.196;2024-01-27T03:27:51;103027.22;;;5.30;100.00
71666;BME280;59503;53.486;10.196;2024-01-27T03:30:17;103032.63;;;5.30;100.00
71666;BME280;59503;53.486;10.196;2024-01-27T03:32:42;103035.88;;;5.32;100.00
71666;BME280;59503;53.486;10.196;2024-01-27T03:35:08;103036.66;;;5.23;100.00
71666;BME280;59503;53.486;10.196;2024-01-27T03:37:33;103032.91;;;5.19;100.00
71666;BME280;59503;53.486;10.196;2024-01-27T03:40:00;103037.75;;;5.17;100.00
71666;BME280;59503;53.486;10.196;2024-01-27T03:42:25;103031.53;;;5.16;100.00
71666;BME280;59503;53.486;10.196;2024-01-27T03:44:51;103036.16;;;5.16;100.00
71666;BME280;59503;53.486;10.196;2024-01-27T03:47:17;103040.72;;;5.15;100.00
71666;BME280;59503;53.486;10.196;2024-01-27T03:49:42;103035.06;;;5.17;100.00
71666;BME280;59503;53.486;10.196;2024-01-27T03:52:08;103049.06;;;5.14;100.00
71666;BME280;59503;53.486;10.196;2024-01-27T03:54:34;103053.66;;;5.13;100.00
71666;BME280;59503;53.486;10.196;2024-01-27T03:56:59;103049.84;;;5.04;100.00
71666;BME280;59503;53.486;10.196;2024-01-27T03:59:25;103048.25;;;5.03;100.00
71666;BME280;59503;53.486;10.196;2024-01-27T04:01:50;103062.56;;;5.08;100.00
71666;BME280;59503;53.486;10.196;2024-01-27T04:04:16;103061.19;;;5.01;100.00
71666;BME280;59503;53.486;10.196;2024-01-27T04:06:41;103067.13;;;4.98;100.00
71666;BME280;59503;53.486;10.196;2024-01-27T04:09:08;103063.88;;;4.96;100.00
71666;BME280;59503;53.486;10.196;2024-01-27T04:11:34;103065.25;;;5.03;100.00
71666;BME280;59503;53.486;10.196;2024-01-27T04:14:01;103063.59;;;4.92;100.00
71666;BME280;59503;53.486;10.196;2024-01-27T04:16:27;103072.50;;;4.93;100.00
71666;BME280;59503;53.486;10.196;2024-01-27T04:18:52;103070.88;;;4.92;100.00
71666;BME280;59503;53.486;10.196;2024-01-27T04:21:18;103063.31;;;4.89;100.00
71666;BME280;59503;53.486;10.196;2024-01-27T04:23:43;103064.41;;;4.88;100.00
71666;BME280;59503;53.486;10.196;2024-01-27T04:26:09;103081.94;;;4.90;100.00
71666;BME280;59503;53.486;10.196;2024-01-27T04:28:36;103074.09;;;4.94;100.00
71666;BME280;59503;53.486;10.196;2024-01-27T04:31:02;103068.69;;;4.89;100.00
71666;BME280;59503;53.486;10.196;2024-01-27T04:33:27;103069.78;;;4.83;100.00
71666;BME280;59503;53.486;10.196;2024-01-27T04:35:53;103072.75;;;4.81;100.00
71666;BME280;59503;53.486;10.196;2024-01-27T04:38:18;103079.47;;;4.84;100.00
71666;BME280;59503;53.486;10.196;2024-01-27T04:40:44;103082.97;;;4.84;100.00
71666;BME280;59503;53.486;10.196;2024-01-27T04:43:10;103082.16;;;4.79;100.00
71666;BME280;59503;53.486;10.196;2024-01-27T04:45:35;103083.78;;;4.85;100.00
71666;BME280;59503;53.486;10.196;2024-01-27T04:48:00;103085.66;;;4.79;100.00
71666;BME280;59503;53.486;10.196;2024-01-27T04:50:27;103091.31;;;4.73;100.00
71666;BME280;59503;53.486;10.196;2024-01-27T04:52:52;103088.06;;;4.76;100.00
71666;BME280;59503;53.486;10.196;2024-01-27T04:55:18;103090.75;;;4.66;100.00
71666;BME280;59503;53.486;10.196;2024-01-27T04:57:43;103094.50;;;4.65;100.00
71666;BME280;59503;53.486;10.196;2024-01-27T05:00:09;103091.56;;;4.66;100.00
71666;BME280;59503;53.486;10.196;2024-01-27T05:02:40;103087.00;;;4.67;100.00
71666;BME280;59503;53.486;10.196;2024-01-27T05:05:07;103095.06;;;4.67;100.00
71666;BME280;59503;53.486;10.196;2024-01-27T05:07:32;103109.06;;;4.69;100.00
71666;BME280;59503;53.486;10.196;2024-01-27T05:09:58;103100.72;;;4.70;100.00
71666;BME280;59503;53.486;10.196;2024-01-27T05:12:23;103103.63;;;4.59;100.00
71666;BME280;59503;53.486;10.196;2024-01-27T05:14:49;103105.81;;;4.57;100.00
71666;BME280;59503;53.486;10.196;2024-01-27T05:17:14;103105.81;;;4.62;100.00
71666;BME280;59503;53.486;10.196;2024-01-27T05:19:40;103107.69;;;4.56;100.00
71666;BME280;59503;53.486;10.196;2024-01-27T05:22:05;103113.09;;;4.61;100.00
71666;BME280;59503;53.486;10.196;2024-01-27T05:24:31;103118.75;;;4.60;100.00
71666;BME280;59503;53.486;10.196;2024-01-27T05:26:56;103121.44;;;4.60;100.00
71666;BME280;59503;53.486;10.196;2024-01-27T05:29:22;103112.53;;;4.59;100.00
71666;BME280;59503;53.486;10.196;2024-01-27T05:31:47;103121.97;;;4.57;100.00
71666;BME280;59503;53.486;10.196;2024-01-27T05:34:13;103123.03;;;4.56;100.00
71666;BME280;59503;53.486;10.196;2024-01-27T05:36:39;103136.97;;;4.43;100.00
71666;BME280;59503;53.486;10.196;2024-01-27T05:39:04;103132.66;;;4.37;100.00
71666;BME280;59503;53.486;10.196;2024-01-27T05:41:30;103137.47;;;4.35;100.00
71666;BME280;59503;53.486;10.196;2024-01-27T05:43:56;103144.97;;;4.28;100.00
71666;BME280;59503;53.486;10.196;2024-01-27T05:46:23;103143.56;;;4.20;100.00
71666;BME280;59503;53.486;10.196;2024-01-27T05:48:49;103143.81;;;4.19;100.00
71666;BME280;59503;53.486;10.196;2024-01-27T05:51:16;103140.03;;;4.10;100.00
71666;BME280;59503;53.486;10.196;2024-01-27T05:53:41;103157.97;;;3.99;100.00
71666;BME280;59503;53.486;10.196;2024-01-27T05:56:07;103144.75;;;3.93;100.00
71666;BME280;59503;53.486;10.196;2024-01-27T05:58:33;103152.78;;;3.88;100.00
71666;BME280;59503;53.486;10.196;2024-01-27T06:00:58;103158.38;;;3.81;100.00
71666;BME280;59503;53.486;10.196;2024-01-27T06:03:23;103159.66;;;3.73;100.00
71666;BME280;59503;53.486;10.196;2024-01-27T06:05:49;103146.13;;;3.63;100.00
71666;BME280;59503;53.486;10.196;2024-01-27T06:08:15;103152.31;;;3.64;100.00
71666;BME280;59503;53.486;10.196;2024-01-27T06:10:40;103158.44;;;3.54;100.00
71666;BME280;59503;53.486;10.196;2024-01-27T06:13:06;103163.75;;;3.49;100.00
71666;BME280;59503;53.486;10.196;2024-01-27T06:15:31;103160.47;;;3.42;100.00
71666;BME280;59503;53.486;10.196;2024-01-27T06:17:57;103176.53;;;3.37;100.00
71666;BME280;59503;53.486;10.196;2024-01-27T06:20:23;103186.22;;;3.38;100.00
71666;BME280;59503;53.486;10.196;2024-01-27T06:22:48;103178.09;;;3.33;100.00
71666;BME280;59503;53.486;10.196;2024-01-27T06:25:14;103186.16;;;3.33;100.00
71666;BME280;59503;53.486;10.196;2024-01-27T06:27:40;103181.34;;;3.35;100.00
71666;BME280;59503;53.486;10.196;2024-01-27T06:30:07;103179.50;;;3.36;100.00
71666;BME280;59503;53.486;10.196;2024-01-27T06:32:33;103185.66;;;3.36;100.00
71666;BME280;59503;53.486;10.196;2024-01-27T06:34:58;103195.84;;;3.34;100.00
71666;BME280;59503;53.486;10.196;2024-01-27T06:37:24;103192.41;;;3.39;100.00
71666;BME280;59503;53.486;10.196;2024-01-27T06:39:49;103199.41;;;3.40;100.00
71666;BME280;59503;53.486;10.196;2024-01-27T06:42:15;103209.06;;;3.36;100.00
71666;BME280;59503;53.486;10.196;2024-01-27T06:44:40;103209.84;;;3.36;100.00
71666;BME280;59503;53.486;10.196;2024-01-27T06:47:06;103209.00;;;3.31;100.00
71666;BME280;59503;53.486;10.196;2024-01-27T06:49:31;103206.91;;;3.38;100.00
71666;BME280;59503;53.486;10.196;2024-01-27T06:51:58;103216.34;;;3.40;100.00
71666;BME280;59503;53.486;10.196;2024-01-27T06:54:24;103213.72;;;3.45;100.00
71666;BME280;59503;53.486;10.196;2024-01-27T06:56:49;103218.13;;;3.56;100.00
71666;BME280;59503;53.486;10.196;2024-01-27T06:59:14;103220.56;;;3.58;100.00
71666;BME280;59503;53.486;10.196;2024-01-27T07:01:48;103238.59;;;3.57;100.00
71666;BME280;59503;53.486;10.196;2024-01-27T07:04:14;103233.22;;;3.57;100.00
71666;BME280;59503;53.486;10.196;2024-01-27T07:06:39;103246.66;;;3.57;100.00
71666;BME280;59503;53.486;10.196;2024-01-27T07:09:05;103240.16;;;3.53;100.00
71666;BME280;59503;53.486;10.196;2024-01-27T07:11:32;103246.34;;;3.54;100.00
71666;BME280;59503;53.486;10.196;2024-01-27T07:13:57;103240.97;;;3.54;100.00
71666;BME280;59503;53.486;10.196;2024-01-27T07:16:23;103237.91;;;3.45;100.00
71666;BME280;59503;53.486;10.196;2024-01-27T07:18:49;103247.13;;;3.49;100.00
71666;BME280;59503;53.486;10.196;2024-01-27T07:21:17;103234.47;;;3.50;100.00
71666;BME280;59503;53.486;10.196;2024-01-27T07:23:43;103243.84;;;3.47;100.00
71666;BME280;59503;53.486;10.196;2024-01-27T07:26:09;103249.75;;;3.44;100.00
71666;BME280;59503;53.486;10.196;2024-01-27T07:28:35;103242.72;;;3.43;100.00
71666;BME280;59503;53.486;10.196;2024-01-27T07:31:01;103255.34;;;3.43;100.00
71666;BME280;59503;53.486;10.196;2024-01-27T07:33:26;103258.28;;;3.41;100.00
71666;BME280;59503;53.486;10.196;2024-01-27T07:35:51;103271.25;;;3.44;100.00
71666;BME280;59503;53.486;10.196;2024-01-27T07:38:17;103258.84;;;3.43;100.00
71666;BME280;59503;53.486;10.196;2024-01-27T07:40:42;103266.09;;;3.43;100.00
71666;BME280;59503;53.486;10.196;2024-01-27T07:43:07;103266.88;;;3.38;100.00
71666;BME280;59503;53.486;10.196;2024-01-27T07:45:33;103266.09;;;3.43;100.00
71666;BME280;59503;53.486;10.196;2024-01-27T07:47:58;103279.22;;;3.39;100.00
71666;BME280;59503;53.486;10.196;2024-01-27T07:50:24;103267.38;;;3.35;100.00
71666;BME280;59503;53.486;10.196;2024-01-27T07:52:49;103266.56;;;3.35;100.00
71666;BME280;59503;53.486;10.196;2024-01-27T07:55:15;103266.31;;;3.36;100.00
71666;BME280;59503;53.486;10.196;2024-01-27T07:57:42;103273.31;;;3.37;100.00
71666;BME280;59503;53.486;10.196;2024-01-27T08:00:08;103276.00;;;3.37;100.00
71666;BME280;59503;53.486;10.196;2024-01-27T08:02:34;103273.31;;;3.37;100.00
71666;BME280;59503;53.486;10.196;2024-01-27T08:04:59;103274.25;;;3.26;100.00
71666;BME280;59503;53.486;10.196;2024-01-27T08:07:25;103259.97;;;3.21;100.00
71666;BME280;59503;53.486;10.196;2024-01-27T08:09:50;103239.94;;;3.12;100.00
71666;BME280;59503;53.486;10.196;2024-01-27T08:12:16;103265.06;;;3.22;100.00
71666;BME280;59503;53.486;10.196;2024-01-27T08:14:41;103274.19;;;3.21;100.00
71666;BME280;59503;53.486;10.196;2024-01-27T08:17:06;103280.38;;;3.22;100.00
71666;BME280;59503;53.486;10.196;2024-01-27T08:19:32;103279.50;;;3.16;100.00
71666;BME280;59503;53.486;10.196;2024-01-27T08:21:57;103279.00;;;3.19;100.00
71666;BME280;59503;53.486;10.196;2024-01-27T08:24:24;103295.69;;;3.21;100.00
71666;BME280;59503;53.486;10.196;2024-01-27T08:26:50;103292.75;;;3.23;100.00
71666;BME280;59503;53.486;10.196;2024-01-27T08:29:16;103294.97;;;3.26;100.00
71666;BME280;59503;53.486;10.196;2024-01-27T08:31:41;103299.31;;;3.32;100.00
71666;BME280;59503;53.486;10.196;2024-01-27T08:34:07;103300.47;;;3.36;100.00
71666;BME280;59503;53.486;10.196;2024-01-27T08:36:32;103301.88;;;3.43;100.00
71666;BME280;59503;53.486;10.196;2024-01-27T08:38:59;103294.19;;;3.52;100.00
71666;BME280;59503;53.486;10.196;2024-01-27T08:41:24;103300.69;;;3.56;100.00
71666;BME280;59503;53.486;10.196;2024-01-27T08:43:50;103306.97;;;3.66;100.00
71666;BME280;59503;53.486;10.196;2024-01-27T08:46:16;103308.72;;;3.77;100.00
71666;BME280;59503;53.486;10.196;2024-01-27T08:48:43;103304.53;;;3.92;100.00
71666;BME280;59503;53.486;10.196;2024-01-27T08:51:09;103323.28;;;4.08;100.00
71666;BME280;59503;53.486;10.196;2024-01-27T08:53:35;103320.97;;;4.22;100.00
71666;BME280;59503;53.486;10.196;2024-01-27T08:56:01;103308.59;;;4.21;100.00
71666;BME280;59503;53.486;10.196;2024-01-27T08:58:27;103308.94;;;4.29;100.00
71666;BME280;59503;53.486;10.196;2024-01-27T09:00:52;103300.63;;;4.36;100.00
71666;BME280;59503;53.486;10.196;2024-01-27T09:03:18;103320.13;;;4.48;100.00
71666;BME280;59503;53.486;10.196;2024-01-27T09:05:46;103322.28;;;4.51;100.00
71666;BME280;59503;53.486;10.196;2024-01-27T09:08:12;103328.19;;;4.48;100.00
71666;BME280;59503;53.486;10.196;2024-01-27T09:10:37;103321.25;;;4.52;100.00
71666;BME280;59503;53.486;10.196;2024-01-27T09:13:03;103324.72;;;4.52;100.00
71666;BME280;59503;53.486;10.196;2024-01-27T09:15:30;103320.16;;;4.53;100.00
71666;BME280;59503;53.486;10.196;2024-01-27T09:17:55;103325.06;;;4.61;100.00
71666;BME280;59503;53.486;10.196;2024-01-27T09:20:20;103324.84;;;4.67;100.00
71666;BME280;59503;53.486;10.196;2024-01-27T09:22:46;103328.31;;;4.63;100.00
71666;BME280;59503;53.486;10.196;2024-01-27T09:25:12;103321.06;;;4.63;100.00
71666;BME280;59503;53.486;10.196;2024-01-27T09:27:39;103320.78;;;4.65;100.00
71666;BME280;59503;53.486;10.196;2024-01-27T09:30:05;103316.72;;;4.62;100.00
71666;BME280;59503;53.486;10.196;2024-01-27T09:32:31;103327.25;;;4.69;100.00
71666;BME280;59503;53.486;10.196;2024-01-27T09:34:56;103327.78;;;4.66;100.00
71666;BME280;59503;53.486;10.196;2024-01-27T09:37:22;103340.16;;;4.62;100.00
71666;BME280;59503;53.486;10.196;2024-01-27T09:39:47;103329.44;;;4.67;100.00
71666;BME280;59503;53.486;10.196;2024-01-27T09:42:13;103332.16;;;4.72;100.00
71666;BME280;59503;53.486;10.196;2024-01-27T09:44:48;103337.84;;;4.75;100.00
71666;BME280;59503;53.486;10.196;2024-01-27T09:47:15;103330.03;;;4.79;100.00
71666;BME280;59503;53.486;10.196;2024-01-27T09:49:42;103334.63;;;4.78;100.00
71666;BME280;59503;53.486;10.196;2024-01-27T09:52:10;103335.22;;;4.85;100.00
71666;BME280;59503;53.486;10.196;2024-01-27T09:54:40;103337.72;;;4.97;100.00
71666;BME280;59503;53.486;10.196;2024-01-27T09:57:05;103344.22;;;5.06;100.00
71666;BME280;59503;53.486;10.196;2024-01-27T09:59:33;103333.72;;;5.09;100.00
71666;BME280;59503;53.486;10.196;2024-01-27T10:01:59;103341.53;;;5.11;100.00
71666;BME280;59503;53.486;10.196;2024-01-27T10:04:26;103341.53;;;5.11;100.00
71666;BME280;59503;53.486;10.196;2024-01-27T10:06:52;103341.09;;;5.24;100.00
71666;BME280;59503;53.486;10.196;2024-01-27T10:09:18;103347.38;;;5.45;100.00
71666;BME280;59503;53.486;10.196;2024-01-27T10:11:47;103342.81;;;5.50;100.00
71666;BME280;59503;53.486;10.196;2024-01-27T10:14:13;103346.13;;;5.72;100.00
71666;BME280;59503;53.486;10.196;2024-01-27T10:16:45;103348.91;;;5.82;100.00
71666;BME280;59503;53.486;10.196;2024-01-27T10:19:18;103344.53;;;5.81;100.00
71666;BME280;59503;53.486;10.196;2024-01-27T10:21:45;103348.94;;;6.12;100.00
71666;BME280;59503;53.486;10.196;2024-01-27T10:24:10;103356.50;;;6.10;100.00
71666;BME280;59503;53.486;10.196;2024-01-27T10:26:36;103348.94;;;6.07;100.00
71666;BME280;59503;53.486;10.196;2024-01-27T10:29:02;103351.09;;;6.00;100.00
71666;BME280;59503;53.486;10.196;2024-01-27T10:31:28;103344.63;;;6.01;100.00
71666;BME280;59503;53.486;10.196;2024-01-27T10:33:55;103354.91;;;6.14;100.00
71666;BME280;59503;53.486;10.196;2024-01-27T10:36:22;103351.13;;;6.20;100.00
71666;BME280;59503;53.486;10.196;2024-01-27T10:38:47;103331.63;;;5.98;100.00
71666;BME280;59503;53.486;10.196;2024-01-27T10:41:20;103346.25;;;6.12;100.00
71666;BME280;59503;53.486;10.196;2024-01-27T10:43:52;103341.41;;;6.19;100.00
71666;BME280;59503;53.486;10.196;2024-01-27T10:46:19;103353.81;;;6.20;100.00
71666;BME280;59503;53.486;10.196;2024-01-27T10:48:52;103347.59;;;6.40;100.00
71666;BME280;59503;53.486;10.196;2024-01-27T10:51:30;103344.66;;;6.52;100.00
71666;BME280;59503;53.486;10.196;2024-01-27T10:54:01;103347.38;;;6.62;100.00
71666;BME280;59503;53.486;10.196;2024-01-27T10:56:29;103340.31;;;6.61;100.00
71666;BME280;59503;53.486;10.196;2024-01-27T10:58:57;103341.13;;;6.61;100.00
71666;BME280;59503;53.486;10.196;2024-01-27T11:01:24;103356.53;;;6.46;100.00
71666;BME280;59503;53.486;10.196;2024-01-27T11:03:51;103360.88;;;6.37;100.00
71666;BME280;59503;53.486;10.196;2024-01-27T11:06:19;103354.66;;;6.41;100.00
71666;BME280;59503;53.486;10.196;2024-01-27T11:08:49;103355.72;;;6.35;100.00
71666;BME280;59503;53.486;10.196;2024-01-27T11:11:15;103348.69;;;6.39;100.00
71666;BME280;59503;53.486;10.196;2024-01-27T11:13:40;103347.88;;;6.44;100.00
71666;BME280;59503;53.486;10.196;2024-01-27T11:16:15;103352.22;;;6.55;100.00
71666;BME280;59503;53.486;10.196;2024-01-27T11:18:42;103358.97;;;6.57;100.00
71666;BME280;59503;53.486;10.196;2024-01-27T11:21:13;103356.81;;;6.64;100.00
71666;BME280;59503;53.486;10.196;2024-01-27T11:23:39;103348.41;;;6.71;100.00
71666;BME280;59503;53.486;10.196;2024-01-27T11:26:05;103341.69;;;6.68;100.00
71666;BME280;59503;53.486;10.196;2024-01-27T11:28:31;103353.81;;;6.71;100.00
71666;BME280;59503;53.486;10.196;2024-01-27T11:30:57;103358.16;;;6.82;100.00
71666;BME280;59503;53.486;10.196;2024-01-27T11:33:25;103357.56;;;7.00;100.00
71666;BME280;59503;53.486;10.196;2024-01-27T11:36:04;103365.69;;;7.00;100.00
71666;BME280;59503;53.486;10.196;2024-01-27T11:38:33;103363.53;;;6.92;100.00
71666;BME280;59503;53.486;10.196;2024-01-27T11:41:01;103364.56;;;7.06;100.00
71666;BME280;59503;53.486;10.196;2024-01-27T11:43:27;103357.78;;;7.28;100.00
71666;BME280;59503;53.486;10.196;2024-01-27T11:45:56;103360.75;;;7.27;100.00
71666;BME280;59503;53.486;10.196;2024-01-27T11:48:22;103359.59;;;7.48;100.00
71666;BME280;59503;53.486;10.196;2024-01-27T11:50:48;103360.63;;;7.62;100.00
71666;BME280;59503;53.486;10.196;2024-01-27T11:53:13;103361.34;;;7.78;100.00
71666;BME280;59503;53.486;10.196;2024-01-27T11:55:38;103372.97;;;7.78;100.00
71666;BME280;59503;53.486;10.196;2024-01-27T11:58:04;103367.06;;;7.76;100.00
71666;BME280;59503;53.486;10.196;2024-01-27T12:00:30;103378.19;;;7.65;100.00
71666;BME280;59503;53.486;10.196;2024-01-27T12:02:56;103373.03;;;7.68;100.00
71666;BME280;59503;53.486;10.196;2024-01-27T12:05:21;103374.38;;;7.71;100.00
71666;BME280;59503;53.486;10.196;2024-01-27T12:07:47;103371.97;;;7.69;100.00
71666;BME280;59503;53.486;10.196;2024-01-27T12:10:13;103379.00;;;7.65;100.00
71666;BME280;59503;53.486;10.196;2024-01-27T12:12:39;103382.75;;;7.74;100.00
71666;BME280;59503;53.486;10.196;2024-01-27T12:15:04;103386.03;;;7.66;100.00
71666;BME280;59503;53.486;10.196;2024-01-27T12:17:30;103381.63;;;7.80;100.00
71666;BME280;59503;53.486;10.196;2024-01-27T12:19:55;103381.69;;;7.70;100.00
71666;BME280;59503;53.486;10.196;2024-01-27T12:22:26;103396.31;;;7.69;100.00
71666;BME280;59503;53.486;10.196;2024-01-27T12:24:52;103380.63;;;7.61;100.00
71666;BME280;59503;53.486;10.196;2024-01-27T12:27:18;103388.78;;;7.56;100.00
71666;BME280;59503;53.486;10.196;2024-01-27T12:29:47;103389.88;;;7.55;100.00
71666;BME280;59503;53.486;10.196;2024-01-27T12:32:14;103392.78;;;7.69;100.00
71666;BME280;59503;53.486;10.196;2024-01-27T12:34:40;103383.31;;;7.66;100.00